Lovington, New Mexico
Current Conditions -  °F | °C
As of 6:55 PM on Friday 24 Oct 2014 (Local Time) from KHOB Reporting Station
Clear Clear  
Wind Chill: 70°   Ceiling: Unl
Heat Index: 70°   Visibility: 10mi
Dew Point: 48°   Wind: 0mph
Humidity: 46%   Direction: NA
Pressure: 30.17"   Gusts: NA
Location:  32.94°N, 103.34°W
Report Text: KHOB 250055Z AUTO 00000KT 10SM CLR 21/09 A3017 RMK AO2
Loading
Personal Weather Stations






























Interactive Weather Map
Tropical Storm Tracking
New forecast layout! Learn more

10-Day Weather Forecast

Advertisements
Track Severe Weather on mobile